Lowell, Idaho
Current Conditions -  °F | °C
As of 1:15 PM on Thursday 20 Nov 2014 (Local Time) from KGIC Reporting Station
Overcast Overcast  
Wind Chill: 33°   Ceiling: 6000
Heat Index: 37°   Visibility: 10mi
Dew Point: 32°   Wind: 5mph
Humidity: 83%   Direction: 70°ENE
Pressure: 30.05"   Gusts: NA
Location:  46.2989°N, 115.619°W
Report Text: KGIC 202115Z AUTO 07004KT 10SM OVC060 03/00 A3005 RMK AO1 T00261001
Loading
Personal Weather Stations






























Interactive Weather Map New forecast layout! Learn more

10-Day Weather Forecast

Advertisements
Track Severe Weather on mobile